ANA645 RJTT-RJFT
Flight info
| Callsign | ANA645 |
|---|---|
| Flight time | 1h 26m |
| Altitude | 22000 |
| Route | N0412F220 NINOX Y28 ONDOC Y452 OOITA Y40 KAZMA |
| Aircraft | A321/M-SDE2FGHIM1RWXY/L |
Departure
| Time | 2026-04-18 07:35 |
|---|---|
| Airport | Tokyo Haneda International Airport (RJTT) |
Arrival
| Time | 2026-04-18 09:01 |
|---|---|
| Airport | Kumamoto Airport (RJFT) |
| Time | Latitude | Longitude | Altitude | Speed | Heading |
|---|---|---|---|---|---|
| 2026-04-18 07:08 | 35.55797 | 139.78725 | 23 ft | 0 kts | 60° |
| 2026-04-18 07:24 | 35.55786 | 139.78701 | 24 ft | 4 kts | 60° |
| 2026-04-18 07:25 | 35.55772 | 139.78673 | 24 ft | 4 kts | 60° |
| 2026-04-18 07:25 | 35.55761 | 139.78648 | 24 ft | 4 kts | 82° |
| 2026-04-18 07:25 | 35.55766 | 139.78622 | 24 ft | 4 kts | 138° |
| 2026-04-18 07:25 | 35.55782 | 139.78608 | 23 ft | 1 kts | 152° |
| 2026-04-18 07:26 | 35.55785 | 139.78606 | 23 ft | 2 kts | 152° |
| 2026-04-18 07:27 | 35.55783 | 139.78608 | 23 ft | 2 kts | 151° |
| 2026-04-18 07:28 | 35.55758 | 139.78625 | 25 ft | 7 kts | 150° |
| 2026-04-18 07:28 | 35.55722 | 139.78650 | 24 ft | 5 kts | 150° |
| 2026-04-18 07:28 | 35.55695 | 139.78669 | 25 ft | 4 kts | 150° |
| 2026-04-18 07:28 | 35.55657 | 139.78712 | 28 ft | 11 kts | 111° |
| 2026-04-18 07:29 | 35.55678 | 139.78812 | 25 ft | 13 kts | 62° |
| 2026-04-18 07:29 | 35.55750 | 139.78861 | 24 ft | 12 kts | 348° |
| 2026-04-18 07:29 | 35.55820 | 139.78818 | 24 ft | 12 kts | 329° |
| 2026-04-18 07:29 | 35.55924 | 139.78745 | 23 ft | 21 kts | 331° |
| 2026-04-18 07:30 | 35.56047 | 139.78657 | 24 ft | 20 kts | 330° |
| 2026-04-18 07:30 | 35.56163 | 139.78575 | 24 ft | 18 kts | 330° |
| 2026-04-18 07:30 | 35.56268 | 139.78500 | 26 ft | 17 kts | 330° |
| 2026-04-18 07:30 | 35.56350 | 139.78423 | 25 ft | 12 kts | 278° |
| 2026-04-18 07:31 | 35.56316 | 139.78332 | 25 ft | 11 kts | 240° |
| 2026-04-18 07:31 | 35.56301 | 139.78248 | 26 ft | 10 kts | 298° |
| 2026-04-18 07:31 | 35.56352 | 139.78203 | 26 ft | 8 kts | 330° |
| 2026-04-18 07:31 | 35.56400 | 139.78169 | 26 ft | 10 kts | 329° |
| 2026-04-18 07:32 | 35.56480 | 139.78112 | 27 ft | 17 kts | 330° |
| 2026-04-18 07:32 | 35.56566 | 139.77997 | 32 ft | 21 kts | 306° |
| 2026-04-18 07:32 | 35.56656 | 139.77839 | 38 ft | 22 kts | 304° |
| 2026-04-18 07:32 | 35.56724 | 139.77715 | 43 ft | 8 kts | 295° |
| 2026-04-18 07:33 | 35.56700 | 139.77671 | 43 ft | 6 kts | 216° |
| 2026-04-18 07:33 | 35.56696 | 139.77668 | 43 ft | 0 kts | 215° |
| 2026-04-18 07:34 | 35.56672 | 139.77647 | 42 ft | 17 kts | 215° |
| 2026-04-18 07:34 | 35.56358 | 139.77378 | 37 ft | 90 kts | 215° |
| 2026-04-18 07:34 | 35.55680 | 139.76797 | 27 ft | 145 kts | 214° |
| 2026-04-18 07:35 | 35.54794 | 139.76043 | 433 ft | 154 kts | 213° |
| 2026-04-18 07:35 | 35.53841 | 139.75496 | 1084 ft | 152 kts | 184° |
| 2026-04-18 07:35 | 35.52784 | 139.75553 | 1723 ft | 151 kts | 176° |
| 2026-04-18 07:35 | 35.51742 | 139.75638 | 2266 ft | 150 kts | 176° |
| 2026-04-18 07:36 | 35.50703 | 139.75718 | 2787 ft | 150 kts | 177° |
| 2026-04-18 07:36 | 35.49662 | 139.75794 | 3256 ft | 152 kts | 177° |
| 2026-04-18 07:36 | 35.48540 | 139.75877 | 3466 ft | 173 kts | 177° |
| 2026-04-18 07:36 | 35.47286 | 139.75968 | 3622 ft | 193 kts | 177° |
| 2026-04-18 07:37 | 35.45868 | 139.76071 | 3777 ft | 214 kts | 177° |
| 2026-04-18 07:37 | 35.44291 | 139.76172 | 3942 ft | 240 kts | 179° |
| 2026-04-18 07:37 | 35.42551 | 139.76203 | 4412 ft | 256 kts | 180° |
| 2026-04-18 07:37 | 35.40752 | 139.76200 | 5145 ft | 261 kts | 181° |
| 2026-04-18 07:38 | 35.38918 | 139.76190 | 5890 ft | 266 kts | 181° |
| 2026-04-18 07:38 | 35.37054 | 139.76182 | 6621 ft | 270 kts | 181° |
| 2026-04-18 07:38 | 35.35165 | 139.76270 | 7348 ft | 275 kts | 173° |
| 2026-04-18 07:38 | 35.33290 | 139.76844 | 8065 ft | 280 kts | 166° |
| 2026-04-18 07:39 | 35.31408 | 139.77513 | 8762 ft | 284 kts | 166° |
| 2026-04-18 07:39 | 35.29498 | 139.78193 | 9433 ft | 288 kts | 166° |
| 2026-04-18 07:39 | 35.27571 | 139.78879 | 10110 ft | 290 kts | 166° |
| 2026-04-18 07:39 | 35.25565 | 139.79551 | 10377 ft | 309 kts | 172° |
| 2026-04-18 07:40 | 35.23365 | 139.79791 | 10512 ft | 328 kts | 184° |
| 2026-04-18 07:40 | 35.21085 | 139.79378 | 10682 ft | 344 kts | 198° |
| 2026-04-18 07:40 | 35.18864 | 139.78246 | 11196 ft | 348 kts | 211° |
| 2026-04-18 07:40 | 35.16914 | 139.76490 | 11852 ft | 349 kts | 224° |
| 2026-04-18 07:41 | 35.15235 | 139.74377 | 12827 ft | 339 kts | 227° |
| 2026-04-18 07:41 | 35.13703 | 139.72308 | 14176 ft | 319 kts | 233° |
| 2026-04-18 07:41 | 35.12596 | 139.70034 | 15218 ft | 312 kts | 246° |
| 2026-04-18 07:41 | 35.11959 | 139.67434 | 15394 ft | 331 kts | 260° |
| 2026-04-18 07:42 | 35.11904 | 139.64551 | 15531 ft | 351 kts | 274° |
| 2026-04-18 07:42 | 35.12484 | 139.61591 | 15796 ft | 367 kts | 288° |
| 2026-04-18 07:42 | 35.13462 | 139.58685 | 16285 ft | 372 kts | 289° |
| 2026-04-18 07:42 | 35.14439 | 139.55749 | 16832 ft | 374 kts | 288° |
| 2026-04-18 07:43 | 35.15600 | 139.52879 | 17354 ft | 382 kts | 299° |
| 2026-04-18 07:43 | 35.17330 | 139.50381 | 17873 ft | 391 kts | 313° |
| 2026-04-18 07:43 | 35.19441 | 139.48240 | 18377 ft | 396 kts | 316° |
| 2026-04-18 07:43 | 35.21570 | 139.46091 | 18888 ft | 397 kts | 315° |
| 2026-04-18 07:44 | 35.23687 | 139.43905 | 19377 ft | 399 kts | 314° |
| 2026-04-18 07:44 | 35.25798 | 139.41697 | 19866 ft | 400 kts | 314° |
| 2026-04-18 07:44 | 35.27897 | 139.39488 | 20346 ft | 402 kts | 314° |
| 2026-04-18 07:44 | 35.29936 | 139.37339 | 20797 ft | 404 kts | 313° |
| 2026-04-18 07:45 | 35.32098 | 139.35067 | 21262 ft | 406 kts | 313° |
| 2026-04-18 07:45 | 35.34193 | 139.32867 | 21711 ft | 407 kts | 313° |
| 2026-04-18 07:45 | 35.36339 | 139.30612 | 21969 ft | 408 kts | 313° |
| 2026-04-18 07:45 | 35.38504 | 139.28338 | 22025 ft | 412 kts | 313° |
| 2026-04-18 07:46 | 35.40537 | 139.26205 | 22028 ft | 415 kts | 313° |
| 2026-04-18 07:46 | 35.42733 | 139.23905 | 22021 ft | 416 kts | 314° |
| 2026-04-18 07:46 | 35.44928 | 139.21597 | 22024 ft | 414 kts | 312° |
| 2026-04-18 07:46 | 35.46844 | 139.19014 | 22023 ft | 405 kts | 301° |
| 2026-04-18 07:47 | 35.48253 | 139.16074 | 22028 ft | 397 kts | 289° |
| 2026-04-18 07:47 | 35.49127 | 139.12894 | 22021 ft | 392 kts | 278° |
| 2026-04-18 07:47 | 35.49449 | 139.09586 | 22040 ft | 390 kts | 268° |
| 2026-04-18 07:47 | 35.49335 | 139.06271 | 22025 ft | 388 kts | 265° |
| 2026-04-18 07:48 | 35.49176 | 139.02942 | 22031 ft | 395 kts | 265° |
| 2026-04-18 07:48 | 35.49008 | 138.99525 | 22028 ft | 408 kts | 265° |
| 2026-04-18 07:48 | 35.48833 | 138.96047 | 22026 ft | 419 kts | 265° |
| 2026-04-18 07:48 | 35.48651 | 138.92444 | 22025 ft | 415 kts | 265° |
| 2026-04-18 07:49 | 35.48475 | 138.88933 | 22018 ft | 411 kts | 265° |
| 2026-04-18 07:49 | 35.48302 | 138.85448 | 22031 ft | 416 kts | 265° |
| 2026-04-18 07:49 | 35.48125 | 138.81907 | 22026 ft | 417 kts | 265° |
| 2026-04-18 07:49 | 35.47947 | 138.78355 | 22037 ft | 417 kts | 265° |
| 2026-04-18 07:50 | 35.47765 | 138.74810 | 22036 ft | 417 kts | 265° |
| 2026-04-18 07:50 | 35.47580 | 138.71247 | 22036 ft | 417 kts | 265° |
| 2026-04-18 07:50 | 35.47393 | 138.67692 | 22036 ft | 417 kts | 265° |
| 2026-04-18 07:50 | 35.47206 | 138.64148 | 22029 ft | 417 kts | 265° |
| 2026-04-18 07:51 | 35.47020 | 138.60600 | 22024 ft | 417 kts | 265° |
| 2026-04-18 07:51 | 35.46834 | 138.57055 | 22023 ft | 416 kts | 265° |
| 2026-04-18 07:51 | 35.46651 | 138.53511 | 22018 ft | 416 kts | 265° |
| 2026-04-18 07:51 | 35.46465 | 138.49976 | 22011 ft | 416 kts | 265° |
| 2026-04-18 07:52 | 35.46277 | 138.46441 | 22008 ft | 416 kts | 265° |
| 2026-04-18 07:52 | 35.46086 | 138.42895 | 22007 ft | 416 kts | 264° |
| 2026-04-18 07:52 | 35.45895 | 138.39358 | 22008 ft | 416 kts | 264° |
| 2026-04-18 07:52 | 35.45702 | 138.35817 | 22010 ft | 416 kts | 264° |
| 2026-04-18 07:53 | 35.45508 | 138.32279 | 21994 ft | 415 kts | 264° |
| 2026-04-18 07:53 | 35.45311 | 138.28734 | 22031 ft | 418 kts | 264° |
| 2026-04-18 07:53 | 35.45112 | 138.25186 | 22023 ft | 417 kts | 265° |
| 2026-04-18 07:53 | 35.44911 | 138.21638 | 22024 ft | 417 kts | 264° |
| 2026-04-18 07:54 | 35.44708 | 138.18091 | 22033 ft | 417 kts | 265° |
| 2026-04-18 07:54 | 35.44510 | 138.14546 | 22022 ft | 417 kts | 265° |
| 2026-04-18 07:54 | 35.44313 | 138.11000 | 22040 ft | 417 kts | 265° |
| 2026-04-18 07:54 | 35.44114 | 138.07455 | 22010 ft | 416 kts | 265° |
| 2026-04-18 07:55 | 35.43911 | 138.03916 | 22016 ft | 416 kts | 264° |
| 2026-04-18 07:55 | 35.43708 | 138.00380 | 22015 ft | 416 kts | 264° |
| 2026-04-18 07:55 | 35.43508 | 137.96888 | 22010 ft | 416 kts | 264° |
| 2026-04-18 07:55 | 35.43305 | 137.93352 | 22005 ft | 415 kts | 264° |
| 2026-04-18 07:56 | 35.43100 | 137.89823 | 22004 ft | 415 kts | 264° |
| 2026-04-18 07:56 | 35.42891 | 137.86288 | 22007 ft | 416 kts | 264° |
| 2026-04-18 07:56 | 35.42680 | 137.82754 | 22007 ft | 416 kts | 264° |
| 2026-04-18 07:56 | 35.42469 | 137.79217 | 22006 ft | 416 kts | 264° |
| 2026-04-18 07:57 | 35.42250 | 137.75691 | 22004 ft | 415 kts | 264° |
| 2026-04-18 07:57 | 35.42002 | 137.72162 | 22005 ft | 415 kts | 264° |
| 2026-04-18 07:57 | 35.41734 | 137.68633 | 22018 ft | 416 kts | 263° |
| 2026-04-18 07:57 | 35.41456 | 137.65103 | 22023 ft | 416 kts | 263° |
| 2026-04-18 07:58 | 35.40903 | 137.58054 | 22016 ft | 416 kts | 263° |
| 2026-04-18 07:58 | 35.40404 | 137.54571 | 22035 ft | 415 kts | 255° |
| 2026-04-18 07:58 | 35.39662 | 137.51151 | 22033 ft | 416 kts | 255° |
| 2026-04-18 07:59 | 35.39169 | 137.48885 | 22031 ft | 416 kts | 255° |
| 2026-04-18 07:59 | 35.38424 | 137.45463 | 22029 ft | 416 kts | 255° |
| 2026-04-18 07:59 | 35.37674 | 137.42036 | 22027 ft | 416 kts | 255° |
| 2026-04-18 07:59 | 35.36924 | 137.38618 | 22025 ft | 415 kts | 255° |
| 2026-04-18 08:00 | 35.36175 | 137.35198 | 22018 ft | 416 kts | 255° |
| 2026-04-18 08:00 | 35.35182 | 137.30663 | 22010 ft | 416 kts | 255° |
| 2026-04-18 08:00 | 35.34675 | 137.28354 | 22008 ft | 416 kts | 255° |
| 2026-04-18 08:00 | 35.33922 | 137.24928 | 22007 ft | 417 kts | 255° |
| 2026-04-18 08:01 | 35.33176 | 137.21537 | 22010 ft | 416 kts | 255° |
| 2026-04-18 08:01 | 35.32424 | 137.18114 | 22009 ft | 417 kts | 255° |
| 2026-04-18 08:01 | 35.31668 | 137.14691 | 22009 ft | 417 kts | 255° |
| 2026-04-18 08:01 | 35.30911 | 137.11259 | 22009 ft | 417 kts | 255° |
| 2026-04-18 08:02 | 35.30155 | 137.07843 | 22008 ft | 417 kts | 255° |
| 2026-04-18 08:02 | 35.29394 | 137.04414 | 22008 ft | 417 kts | 255° |
| 2026-04-18 08:02 | 35.28634 | 137.00987 | 22009 ft | 417 kts | 255° |
| 2026-04-18 08:02 | 35.27873 | 136.97568 | 22011 ft | 417 kts | 255° |
| 2026-04-18 08:03 | 35.27110 | 136.94139 | 22014 ft | 417 kts | 255° |
| 2026-04-18 08:03 | 35.26348 | 136.90712 | 22015 ft | 417 kts | 255° |
| 2026-04-18 08:03 | 35.25586 | 136.87287 | 22018 ft | 417 kts | 255° |
| 2026-04-18 08:03 | 35.24822 | 136.83864 | 22017 ft | 417 kts | 255° |
| 2026-04-18 08:04 | 35.24055 | 136.80451 | 22019 ft | 416 kts | 255° |
| 2026-04-18 08:04 | 35.23494 | 136.77957 | 22017 ft | 416 kts | 255° |
| 2026-04-18 08:04 | 35.22750 | 136.74660 | 22016 ft | 416 kts | 255° |
| 2026-04-18 08:04 | 35.21956 | 136.71142 | 22016 ft | 416 kts | 255° |
| 2026-04-18 08:05 | 35.21186 | 136.67723 | 22013 ft | 416 kts | 255° |
| 2026-04-18 08:05 | 35.20415 | 136.64307 | 22013 ft | 416 kts | 255° |
| 2026-04-18 08:05 | 35.19645 | 136.60899 | 22007 ft | 415 kts | 255° |
| 2026-04-18 08:05 | 35.18875 | 136.57496 | 22002 ft | 415 kts | 255° |
| 2026-04-18 08:06 | 35.18105 | 136.54093 | 22003 ft | 416 kts | 255° |
| 2026-04-18 08:06 | 35.17333 | 136.50691 | 22004 ft | 416 kts | 255° |
| 2026-04-18 08:06 | 35.16559 | 136.47284 | 22004 ft | 415 kts | 255° |
| 2026-04-18 08:06 | 35.15784 | 136.43881 | 22007 ft | 415 kts | 255° |
| 2026-04-18 08:07 | 35.15011 | 136.40488 | 22002 ft | 415 kts | 255° |
| 2026-04-18 08:07 | 35.14238 | 136.37096 | 21995 ft | 415 kts | 255° |
| 2026-04-18 08:07 | 35.13462 | 136.33704 | 21990 ft | 414 kts | 255° |
| 2026-04-18 08:07 | 35.12682 | 136.30311 | 21987 ft | 414 kts | 255° |
| 2026-04-18 08:08 | 35.11902 | 136.26925 | 21989 ft | 415 kts | 255° |
| 2026-04-18 08:08 | 35.11124 | 136.23535 | 21989 ft | 415 kts | 255° |
| 2026-04-18 08:08 | 35.10352 | 136.20137 | 21992 ft | 415 kts | 255° |
| 2026-04-18 08:08 | 35.09585 | 136.16745 | 21997 ft | 415 kts | 255° |
| 2026-04-18 08:09 | 35.08812 | 136.13353 | 21993 ft | 414 kts | 255° |
| 2026-04-18 08:09 | 35.08036 | 136.09959 | 21996 ft | 415 kts | 255° |
| 2026-04-18 08:09 | 35.07258 | 136.06567 | 21996 ft | 415 kts | 255° |
| 2026-04-18 08:09 | 35.06490 | 136.03214 | 21995 ft | 416 kts | 255° |
| 2026-04-18 08:10 | 35.05710 | 135.99818 | 21997 ft | 416 kts | 255° |
| 2026-04-18 08:10 | 35.04921 | 135.96416 | 22001 ft | 416 kts | 255° |
| 2026-04-18 08:10 | 35.04119 | 135.92975 | 22003 ft | 416 kts | 255° |
| 2026-04-18 08:10 | 35.03338 | 135.89625 | 22003 ft | 417 kts | 255° |
| 2026-04-18 08:11 | 35.02544 | 135.86228 | 22006 ft | 416 kts | 255° |
| 2026-04-18 08:11 | 35.01751 | 135.82829 | 22001 ft | 416 kts | 255° |
| 2026-04-18 08:11 | 35.01014 | 135.79418 | 22001 ft | 416 kts | 257° |
| 2026-04-18 08:11 | 35.00356 | 135.75975 | 21997 ft | 416 kts | 258° |
| 2026-04-18 08:12 | 34.99744 | 135.72525 | 21996 ft | 416 kts | 258° |
| 2026-04-18 08:12 | 34.99149 | 135.69062 | 21996 ft | 416 kts | 258° |
| 2026-04-18 08:12 | 34.98579 | 135.65784 | 21997 ft | 417 kts | 258° |
| 2026-04-18 08:12 | 34.97960 | 135.62331 | 21991 ft | 417 kts | 258° |
| 2026-04-18 08:13 | 34.97326 | 135.58881 | 21989 ft | 417 kts | 258° |
| 2026-04-18 08:13 | 34.96683 | 135.55436 | 21989 ft | 417 kts | 257° |
| 2026-04-18 08:13 | 34.96031 | 135.51987 | 21990 ft | 417 kts | 257° |
| 2026-04-18 08:13 | 34.95376 | 135.48542 | 21992 ft | 417 kts | 257° |
| 2026-04-18 08:14 | 34.94721 | 135.45088 | 21999 ft | 417 kts | 257° |
| 2026-04-18 08:14 | 34.94080 | 135.41690 | 21994 ft | 417 kts | 257° |
| 2026-04-18 08:14 | 34.93425 | 135.38198 | 21996 ft | 417 kts | 258° |
| 2026-04-18 08:14 | 34.92785 | 135.34795 | 21988 ft | 417 kts | 257° |
| 2026-04-18 08:15 | 34.92127 | 135.31360 | 21992 ft | 416 kts | 257° |
| 2026-04-18 08:15 | 34.91456 | 135.27918 | 21984 ft | 417 kts | 257° |
| 2026-04-18 08:15 | 34.90780 | 135.24484 | 21994 ft | 417 kts | 257° |
| 2026-04-18 08:15 | 34.90098 | 135.21045 | 21989 ft | 417 kts | 257° |
| 2026-04-18 08:16 | 34.89413 | 135.17614 | 21989 ft | 417 kts | 257° |
| 2026-04-18 08:16 | 34.88731 | 135.14178 | 21993 ft | 417 kts | 257° |
| 2026-04-18 08:16 | 34.88054 | 135.10741 | 21992 ft | 418 kts | 257° |
| 2026-04-18 08:16 | 34.87378 | 135.07302 | 21991 ft | 418 kts | 257° |
| 2026-04-18 08:17 | 34.86699 | 135.03859 | 21983 ft | 418 kts | 257° |
| 2026-04-18 08:17 | 34.86019 | 135.00418 | 21987 ft | 418 kts | 257° |
| 2026-04-18 08:17 | 34.85344 | 134.96972 | 21987 ft | 418 kts | 257° |
| 2026-04-18 08:17 | 34.84689 | 134.93525 | 21991 ft | 418 kts | 258° |
| 2026-04-18 08:18 | 34.84048 | 134.90066 | 21992 ft | 418 kts | 258° |
| 2026-04-18 08:18 | 34.83413 | 134.86609 | 21993 ft | 419 kts | 258° |
| 2026-04-18 08:18 | 34.82774 | 134.83155 | 21997 ft | 419 kts | 258° |
| 2026-04-18 08:18 | 34.82131 | 134.79692 | 21996 ft | 420 kts | 258° |
| 2026-04-18 08:19 | 34.81485 | 134.76235 | 21999 ft | 420 kts | 258° |
| 2026-04-18 08:19 | 34.80831 | 134.72768 | 21996 ft | 420 kts | 258° |
| 2026-04-18 08:19 | 34.80171 | 134.69295 | 22002 ft | 420 kts | 258° |
| 2026-04-18 08:19 | 34.79512 | 134.65835 | 22006 ft | 420 kts | 258° |
| 2026-04-18 08:20 | 34.78851 | 134.62372 | 22009 ft | 420 kts | 258° |
| 2026-04-18 08:20 | 34.78184 | 134.58906 | 22009 ft | 421 kts | 258° |
| 2026-04-18 08:20 | 34.77514 | 134.55436 | 22011 ft | 421 kts | 258° |
| 2026-04-18 08:20 | 34.76850 | 134.52015 | 22014 ft | 421 kts | 257° |
| 2026-04-18 08:21 | 34.76168 | 134.48511 | 22017 ft | 421 kts | 257° |
| 2026-04-18 08:21 | 34.75493 | 134.45042 | 22020 ft | 421 kts | 257° |
| 2026-04-18 08:21 | 34.74832 | 134.41619 | 22020 ft | 421 kts | 258° |
| 2026-04-18 08:21 | 34.74162 | 134.38109 | 22021 ft | 421 kts | 258° |
| 2026-04-18 08:22 | 34.73501 | 134.34643 | 22021 ft | 421 kts | 258° |
| 2026-04-18 08:22 | 34.72848 | 134.31217 | 22023 ft | 421 kts | 258° |
| 2026-04-18 08:22 | 34.72177 | 134.27703 | 22024 ft | 422 kts | 258° |
| 2026-04-18 08:22 | 34.71514 | 134.24231 | 22025 ft | 422 kts | 258° |
| 2026-04-18 08:23 | 34.70856 | 134.20804 | 22024 ft | 422 kts | 258° |
| 2026-04-18 08:23 | 34.70175 | 134.17286 | 22024 ft | 422 kts | 258° |
| 2026-04-18 08:23 | 34.69511 | 134.13853 | 22022 ft | 423 kts | 258° |
| 2026-04-18 08:23 | 34.68838 | 134.10375 | 22025 ft | 423 kts | 258° |
| 2026-04-18 08:24 | 34.68168 | 134.06898 | 22024 ft | 423 kts | 258° |
| 2026-04-18 08:24 | 34.67500 | 134.03421 | 22026 ft | 423 kts | 258° |
| 2026-04-18 08:24 | 34.66672 | 133.99988 | 22025 ft | 424 kts | 251° |
| 2026-04-18 08:24 | 34.65635 | 133.96637 | 22022 ft | 424 kts | 251° |
| 2026-04-18 08:25 | 34.64598 | 133.93276 | 22017 ft | 425 kts | 251° |
| 2026-04-18 08:25 | 34.63563 | 133.89916 | 22015 ft | 426 kts | 251° |
| 2026-04-18 08:25 | 34.62524 | 133.86539 | 22015 ft | 426 kts | 251° |
| 2026-04-18 08:25 | 34.61488 | 133.83177 | 22018 ft | 426 kts | 251° |
| 2026-04-18 08:26 | 34.60447 | 133.79807 | 22018 ft | 427 kts | 251° |
| 2026-04-18 08:26 | 34.59403 | 133.76435 | 22022 ft | 427 kts | 251° |
| 2026-04-18 08:26 | 34.58355 | 133.73062 | 22021 ft | 427 kts | 251° |
| 2026-04-18 08:26 | 34.57308 | 133.69697 | 22025 ft | 426 kts | 251° |
| 2026-04-18 08:27 | 34.56260 | 133.66331 | 22025 ft | 426 kts | 251° |
| 2026-04-18 08:27 | 34.55212 | 133.62963 | 22021 ft | 427 kts | 251° |
| 2026-04-18 08:27 | 34.54162 | 133.59601 | 22021 ft | 427 kts | 251° |
| 2026-04-18 08:27 | 34.53083 | 133.56245 | 22023 ft | 428 kts | 250° |
| 2026-04-18 08:28 | 34.51979 | 133.52888 | 22025 ft | 428 kts | 250° |
| 2026-04-18 08:28 | 34.50865 | 133.49537 | 22030 ft | 428 kts | 250° |
| 2026-04-18 08:28 | 34.49749 | 133.46195 | 22034 ft | 428 kts | 250° |
| 2026-04-18 08:28 | 34.48632 | 133.42847 | 22035 ft | 428 kts | 250° |
| 2026-04-18 08:29 | 34.47520 | 133.39499 | 22036 ft | 428 kts | 250° |
| 2026-04-18 08:29 | 34.46435 | 133.36186 | 22036 ft | 428 kts | 250° |
| 2026-04-18 08:29 | 34.45369 | 133.32819 | 22065 ft | 427 kts | 251° |
| 2026-04-18 08:29 | 34.44324 | 133.29452 | 22062 ft | 428 kts | 251° |
| 2026-04-18 08:30 | 34.43283 | 133.26073 | 22056 ft | 428 kts | 251° |
| 2026-04-18 08:30 | 34.42238 | 133.22699 | 22051 ft | 428 kts | 251° |
| 2026-04-18 08:30 | 34.41185 | 133.19318 | 22052 ft | 428 kts | 251° |
| 2026-04-18 08:30 | 34.40133 | 133.15948 | 22050 ft | 428 kts | 251° |
| 2026-04-18 08:31 | 34.39071 | 133.12580 | 22050 ft | 428 kts | 250° |
| 2026-04-18 08:31 | 34.38001 | 133.09221 | 22047 ft | 428 kts | 250° |
| 2026-04-18 08:31 | 34.36924 | 133.05865 | 22044 ft | 428 kts | 250° |
| 2026-04-18 08:31 | 34.35845 | 133.02501 | 22041 ft | 428 kts | 250° |
| 2026-04-18 08:32 | 34.34778 | 132.99173 | 22037 ft | 428 kts | 250° |
| 2026-04-18 08:32 | 34.33699 | 132.95808 | 22036 ft | 429 kts | 250° |
| 2026-04-18 08:32 | 34.32620 | 132.92448 | 22038 ft | 429 kts | 250° |
| 2026-04-18 08:32 | 34.31543 | 132.89089 | 22039 ft | 428 kts | 250° |
| 2026-04-18 08:33 | 34.30470 | 132.85721 | 22040 ft | 428 kts | 250° |
| 2026-04-18 08:33 | 34.29411 | 132.82362 | 22039 ft | 428 kts | 250° |
| 2026-04-18 08:33 | 34.28353 | 132.78991 | 22039 ft | 428 kts | 250° |
| 2026-04-18 08:33 | 34.27294 | 132.75620 | 22038 ft | 428 kts | 250° |
| 2026-04-18 08:34 | 34.26236 | 132.72260 | 22040 ft | 428 kts | 250° |
| 2026-04-18 08:34 | 34.25174 | 132.68895 | 22033 ft | 428 kts | 250° |
| 2026-04-18 08:34 | 34.24110 | 132.65536 | 22026 ft | 428 kts | 250° |
| 2026-04-18 08:34 | 34.23056 | 132.62216 | 22028 ft | 428 kts | 250° |
| 2026-04-18 08:35 | 34.21973 | 132.58866 | 22030 ft | 428 kts | 248° |
| 2026-04-18 08:35 | 34.20554 | 132.55691 | 22032 ft | 430 kts | 238° |
| 2026-04-18 08:35 | 34.18704 | 132.52845 | 22037 ft | 433 kts | 229° |
| 2026-04-18 08:35 | 34.16576 | 132.50248 | 22036 ft | 435 kts | 227° |
| 2026-04-18 08:36 | 34.14439 | 132.47661 | 22037 ft | 435 kts | 227° |
| 2026-04-18 08:36 | 34.12301 | 132.45075 | 22034 ft | 435 kts | 227° |
| 2026-04-18 08:36 | 34.10168 | 132.42495 | 22034 ft | 435 kts | 227° |
| 2026-04-18 08:36 | 34.08032 | 132.39914 | 22035 ft | 434 kts | 227° |
| 2026-04-18 08:37 | 34.05901 | 132.37335 | 22037 ft | 434 kts | 227° |
| 2026-04-18 08:37 | 34.03765 | 132.34755 | 22041 ft | 434 kts | 227° |
| 2026-04-18 08:37 | 34.01627 | 132.32176 | 22042 ft | 434 kts | 227° |
| 2026-04-18 08:37 | 33.99522 | 132.29640 | 22041 ft | 434 kts | 227° |
| 2026-04-18 08:38 | 33.97384 | 132.27068 | 22042 ft | 434 kts | 227° |
| 2026-04-18 08:38 | 33.95247 | 132.24497 | 22044 ft | 434 kts | 227° |
| 2026-04-18 08:38 | 33.93101 | 132.21942 | 22045 ft | 434 kts | 225° |
| 2026-04-18 08:38 | 33.90704 | 132.19696 | 22041 ft | 437 kts | 216° |
| 2026-04-18 08:39 | 33.88023 | 132.17933 | 22040 ft | 441 kts | 209° |
| 2026-04-18 08:39 | 33.85261 | 132.16325 | 22038 ft | 441 kts | 209° |
| 2026-04-18 08:39 | 33.82492 | 132.14713 | 22039 ft | 441 kts | 209° |
| 2026-04-18 08:39 | 33.79732 | 132.13105 | 22037 ft | 441 kts | 209° |
| 2026-04-18 08:40 | 33.76974 | 132.11492 | 22036 ft | 441 kts | 210° |
| 2026-04-18 08:40 | 33.74215 | 132.09873 | 22033 ft | 441 kts | 210° |
| 2026-04-18 08:40 | 33.71496 | 132.08278 | 22031 ft | 440 kts | 210° |
| 2026-04-18 08:40 | 33.68745 | 132.06663 | 22027 ft | 440 kts | 210° |
| 2026-04-18 08:41 | 33.65994 | 132.05052 | 22027 ft | 440 kts | 210° |
| 2026-04-18 08:41 | 33.63237 | 132.03441 | 22025 ft | 440 kts | 209° |
| 2026-04-18 08:41 | 33.60480 | 132.01832 | 22021 ft | 441 kts | 209° |
| 2026-04-18 08:41 | 33.57724 | 132.00227 | 22017 ft | 441 kts | 209° |
| 2026-04-18 08:42 | 33.54960 | 131.98619 | 22018 ft | 441 kts | 209° |
| 2026-04-18 08:42 | 33.52198 | 131.97013 | 22018 ft | 441 kts | 209° |
| 2026-04-18 08:42 | 33.49437 | 131.95404 | 22018 ft | 442 kts | 209° |
| 2026-04-18 08:42 | 33.46772 | 131.93606 | 22016 ft | 438 kts | 217° |
| 2026-04-18 08:43 | 33.44350 | 131.91407 | 22021 ft | 436 kts | 221° |
| 2026-04-18 08:43 | 33.41974 | 131.89149 | 22023 ft | 436 kts | 221° |
| 2026-04-18 08:43 | 33.39592 | 131.86886 | 22024 ft | 437 kts | 221° |
| 2026-04-18 08:43 | 33.37211 | 131.84631 | 22024 ft | 437 kts | 221° |
| 2026-04-18 08:44 | 33.34825 | 131.82381 | 22026 ft | 437 kts | 221° |
| 2026-04-18 08:44 | 33.32436 | 131.80131 | 22026 ft | 437 kts | 221° |
| 2026-04-18 08:44 | 33.30854 | 131.78641 | 22025 ft | 437 kts | 221° |
| 2026-04-18 08:44 | 33.28469 | 131.76394 | 22023 ft | 437 kts | 221° |
| 2026-04-18 08:45 | 33.26399 | 131.74445 | 22022 ft | 438 kts | 221° |
| 2026-04-18 08:45 | 33.23030 | 131.70942 | 22020 ft | 435 kts | 229° |
| 2026-04-18 08:45 | 33.21747 | 131.69109 | 22022 ft | 434 kts | 235° |
| 2026-04-18 08:45 | 33.20139 | 131.66070 | 22025 ft | 432 kts | 243° |
| 2026-04-18 08:46 | 33.18736 | 131.62892 | 22027 ft | 433 kts | 243° |
| 2026-04-18 08:46 | 33.17333 | 131.59712 | 22027 ft | 433 kts | 243° |
| 2026-04-18 08:46 | 33.15929 | 131.56537 | 22024 ft | 433 kts | 243° |
| 2026-04-18 08:46 | 33.14524 | 131.53373 | 22022 ft | 426 kts | 243° |
| 2026-04-18 08:47 | 33.13155 | 131.50300 | 22025 ft | 416 kts | 243° |
| 2026-04-18 08:47 | 33.11798 | 131.47255 | 22025 ft | 414 kts | 243° |
| 2026-04-18 08:47 | 33.10444 | 131.44231 | 22025 ft | 414 kts | 243° |
| 2026-04-18 08:47 | 33.09098 | 131.41243 | 22017 ft | 414 kts | 243° |
| 2026-04-18 08:48 | 33.07734 | 131.38227 | 22019 ft | 414 kts | 242° |
| 2026-04-18 08:48 | 33.06363 | 131.35201 | 22018 ft | 415 kts | 243° |
| 2026-04-18 08:48 | 33.04998 | 131.32174 | 22016 ft | 415 kts | 243° |
| 2026-04-18 08:48 | 33.03634 | 131.29139 | 22008 ft | 415 kts | 243° |
| 2026-04-18 08:49 | 33.02272 | 131.26109 | 22007 ft | 415 kts | 243° |
| 2026-04-18 08:49 | 33.01000 | 131.23280 | 22004 ft | 415 kts | 243° |
| 2026-04-18 08:49 | 32.99641 | 131.20252 | 22001 ft | 414 kts | 243° |
| 2026-04-18 08:49 | 32.98288 | 131.17222 | 21999 ft | 414 kts | 244° |
| 2026-04-18 08:50 | 32.97200 | 131.14050 | 21552 ft | 414 kts | 252° |
| 2026-04-18 08:50 | 32.96340 | 131.10737 | 20257 ft | 424 kts | 253° |
| 2026-04-18 08:50 | 32.95499 | 131.07347 | 19165 ft | 429 kts | 254° |
| 2026-04-18 08:50 | 32.94680 | 131.03984 | 18840 ft | 414 kts | 254° |
| 2026-04-18 08:51 | 32.93909 | 131.00824 | 18544 ft | 380 kts | 254° |
| 2026-04-18 08:51 | 32.93196 | 130.97931 | 18264 ft | 349 kts | 254° |
| 2026-04-18 08:51 | 32.92531 | 130.95270 | 17991 ft | 324 kts | 253° |
| 2026-04-18 08:51 | 32.91894 | 130.92751 | 17350 ft | 313 kts | 253° |
| 2026-04-18 08:52 | 32.91271 | 130.90289 | 16561 ft | 308 kts | 253° |
| 2026-04-18 08:52 | 32.90657 | 130.87855 | 15741 ft | 305 kts | 254° |
| 2026-04-18 08:52 | 32.90049 | 130.85443 | 14899 ft | 303 kts | 254° |
| 2026-04-18 08:52 | 32.89450 | 130.83077 | 14070 ft | 302 kts | 254° |
| 2026-04-18 08:53 | 32.88844 | 130.80695 | 13257 ft | 300 kts | 254° |
| 2026-04-18 08:53 | 32.88244 | 130.78328 | 12429 ft | 299 kts | 254° |
| 2026-04-18 08:53 | 32.87651 | 130.75996 | 11842 ft | 290 kts | 254° |
| 2026-04-18 08:53 | 32.87069 | 130.73713 | 11130 ft | 286 kts | 254° |
| 2026-04-18 08:54 | 32.86497 | 130.71457 | 10357 ft | 285 kts | 254° |
| 2026-04-18 08:54 | 32.85926 | 130.69203 | 9571 ft | 285 kts | 254° |
| 2026-04-18 08:54 | 32.85355 | 130.66952 | 8794 ft | 284 kts | 254° |
| 2026-04-18 08:54 | 32.84781 | 130.64697 | 8009 ft | 285 kts | 254° |
| 2026-04-18 08:55 | 32.84039 | 130.62531 | 7242 ft | 282 kts | 237° |
| 2026-04-18 08:55 | 32.82761 | 130.60804 | 6525 ft | 276 kts | 216° |
| 2026-04-18 08:55 | 32.81108 | 130.59722 | 5782 ft | 270 kts | 195° |
| 2026-04-18 08:55 | 32.79311 | 130.59364 | 5345 ft | 255 kts | 178° |
| 2026-04-18 08:56 | 32.77628 | 130.59725 | 5178 ft | 239 kts | 153° |
| 2026-04-18 08:56 | 32.76411 | 130.60865 | 4974 ft | 221 kts | 124° |
| 2026-04-18 08:56 | 32.75867 | 130.62538 | 4589 ft | 218 kts | 96° |
| 2026-04-18 08:56 | 32.75750 | 130.64291 | 4256 ft | 207 kts | 92° |
| 2026-04-18 08:57 | 32.76451 | 130.67408 | 3625 ft | 189 kts | 65° |
| 2026-04-18 08:57 | 32.77007 | 130.68785 | 3385 ft | 181 kts | 65° |
| 2026-04-18 08:57 | 32.77539 | 130.70107 | 3146 ft | 174 kts | 66° |
| 2026-04-18 08:58 | 32.78053 | 130.71380 | 2918 ft | 168 kts | 66° |
| 2026-04-18 08:58 | 32.78552 | 130.72619 | 2698 ft | 164 kts | 66° |
| 2026-04-18 08:58 | 32.79039 | 130.73829 | 2482 ft | 161 kts | 66° |
| 2026-04-18 08:58 | 32.79495 | 130.74960 | 2283 ft | 159 kts | 66° |
| 2026-04-18 08:59 | 32.79966 | 130.76134 | 2097 ft | 153 kts | 67° |
| 2026-04-18 08:59 | 32.80417 | 130.77253 | 1878 ft | 148 kts | 66° |
| 2026-04-18 08:59 | 32.80857 | 130.78348 | 1682 ft | 146 kts | 66° |
| 2026-04-18 08:59 | 32.81295 | 130.79437 | 1473 ft | 146 kts | 66° |
| 2026-04-18 09:00 | 32.81732 | 130.80524 | 1294 ft | 146 kts | 66° |
| 2026-04-18 09:00 | 32.82169 | 130.81613 | 1098 ft | 146 kts | 65° |
| 2026-04-18 09:00 | 32.82602 | 130.82690 | 912 ft | 146 kts | 65° |
| 2026-04-18 09:00 | 32.83037 | 130.83773 | 720 ft | 145 kts | 65° |
| 2026-04-18 09:01 | 32.83459 | 130.84830 | 623 ft | 128 kts | 64° |
| 2026-04-18 09:01 | 32.83709 | 130.85454 | 631 ft | 29 kts | 65° |
| 2026-04-18 09:01 | 32.83691 | 130.85525 | 638 ft | 8 kts | 150° |
| 2026-04-18 09:01 | 32.83651 | 130.85550 | 632 ft | 4 kts | 152° |
| 2026-04-18 09:02 | 32.83639 | 130.85558 | 632 ft | 2 kts | 152° |
| 2026-04-18 09:02 | 32.83607 | 130.85578 | 634 ft | 9 kts | 151° |
| 2026-04-18 09:02 | 32.83603 | 130.85646 | 635 ft | 12 kts | 66° |
| 2026-04-18 09:02 | 32.83645 | 130.85755 | 641 ft | 12 kts | 71° |
| 2026-04-18 09:03 | 32.83619 | 130.85783 | 643 ft | 5 kts | 163° |
| 2026-04-18 09:03 | 32.83591 | 130.85794 | 640 ft | 4 kts | 154° |
| 2026-04-18 09:03 | 32.83571 | 130.85806 | 636 ft | 3 kts | 155° |
| 2026-04-18 09:03 | 32.83553 | 130.85816 | 645 ft | 5 kts | 155° |
| 2026-04-18 09:04 | 32.83526 | 130.85830 | 636 ft | 0 kts | 155° |